Time;durP1;ratioP1;P1;durP2;ratioP2;P2;SDS_P1;SDS_P2;PMS_P1;PMS_P2;Temp;Humidity;BMP_temperature;BMP_pressure;BME280_temperature;BME280_humidity;BME280_pressure;Samples;Min_cycle;Max_cycle;Signal;HPM_P1;HPM_P2
2023/08/08 00:04:30;;;;;;;1.00;0.40;;;;;;;;;;10432031;28;20455;-81
2023/08/08 00:09:34;;;;;;;1.00;0.43;;;;;;;;;;10430673;28;20464;-81
2023/08/08 00:14:36;;;;;;;0.40;0.30;;;;;;;;;;10432004;28;20419;-81
2023/08/08 00:19:38;;;;;;;0.77;0.50;;;;;;;;;;10430113;28;20422;-81
2023/08/08 00:24:42;;;;;;;0.93;0.40;;;;;;;;;;10433059;28;20463;-81
2023/08/08 00:29:45;;;;;;;0.40;0.40;;;;;;;;;;10430842;28;20919;-81
2023/08/08 00:34:47;;;;;;;1.08;0.40;;;;;;;;;;10432831;28;20817;-81
2023/08/08 00:39:51;;;;;;;1.23;0.40;;;;;;;;;;10429902;28;20417;-81
2023/08/08 00:44:53;;;;;;;1.20;0.40;;;;;;;;;;10428484;28;20896;-81
2023/08/08 00:49:56;;;;;;;2.17;0.50;;;;;;;;;;10438279;22;20555;-81
2023/08/08 00:55:01;;;;;;;1.40;0.47;;;;;;;;;;10421233;28;20481;-81
2023/08/08 01:00:04;;;;;;;0.85;0.50;;;;;;;;;;10420980;28;20460;-81
2023/08/08 01:05:08;;;;;;;1.10;0.40;;;;;;;;;;10423695;28;20939;-81
2023/08/08 01:10:16;;;;;;;0.60;0.50;;;;;;;;;;10421807;28;20588;-81
2023/08/08 01:15:19;;;;;;;0.73;0.52;;;;;;;;;;10425793;28;20417;-81
2023/08/08 01:20:22;;;;;;;0.50;0.47;;;;;;;;;;10430484;28;20445;-81
2023/08/08 01:25:26;;;;;;;1.73;0.50;;;;;;;;;;10428282;28;20915;-81
2023/08/08 01:30:29;;;;;;;0.50;0.50;;;;;;;;;;10425334;28;20405;-80
2023/08/08 01:35:35;;;;;;;1.63;0.50;;;;;;;;;;10429191;28;20457;-81
2023/08/08 01:40:40;;;;;;;0.45;0.40;;;;;;;;;;10427598;28;20405;-81
2023/08/08 01:45:44;;;;;;;0.52;0.50;;;;;;;;;;10424751;28;20427;-81
2023/08/08 01:50:47;;;;;;;0.93;0.40;;;;;;;;;;10428689;28;20467;-81
2023/08/08 01:55:52;;;;;;;1.10;0.40;;;;;;;;;;10429033;28;20412;-81
2023/08/08 02:00:54;;;;;;;1.23;0.45;;;;;;;;;;10426092;28;20817;-81
2023/08/08 02:05:56;;;;;;;0.60;0.40;;;;;;;;;;10427539;28;20429;-81
2023/08/08 02:11:00;;;;;;;0.87;0.40;;;;;;;;;;10428723;28;20399;-80
2023/08/08 02:16:02;;;;;;;1.07;0.40;;;;;;;;;;10423054;28;20414;-80
2023/08/08 02:21:05;;;;;;;0.95;0.40;;;;;;;;;;10428759;28;20476;-81
2023/08/08 02:26:08;;;;;;;1.30;0.40;;;;;;;;;;10427198;28;20475;-80
2023/08/08 02:31:10;;;;;;;1.03;0.40;;;;;;;;;;10435748;28;20419;-81
2023/08/08 02:36:13;;;;;;;0.80;0.40;;;;;;;;;;10434997;28;20417;-80
2023/08/08 02:41:16;;;;;;;1.30;0.50;;;;;;;;;;10434408;28;20508;-81
2023/08/08 02:46:19;;;;;;;0.50;0.40;;;;;;;;;;10436436;28;20540;-81
2023/08/08 02:51:21;;;;;;;1.17;0.40;;;;;;;;;;10433639;28;20463;-81
2023/08/08 02:56:24;;;;;;;0.70;0.40;;;;;;;;;;10435608;28;20954;-81
2023/08/08 03:01:27;;;;;;;0.63;0.45;;;;;;;;;;10432726;28;20411;-80
2023/08/08 03:06:29;;;;;;;0.50;0.45;;;;;;;;;;10432912;28;20459;-80
2023/08/08 03:11:33;;;;;;;1.02;0.50;;;;;;;;;;10432107;28;20441;-80
2023/08/08 03:16:35;;;;;;;1.48;0.40;;;;;;;;;;10433845;28;20455;-81
2023/08/08 03:21:37;;;;;;;0.60;0.47;;;;;;;;;;10435446;28;20793;-80
2023/08/08 03:26:41;;;;;;;1.40;0.40;;;;;;;;;;10432343;28;20475;-81
2023/08/08 03:31:43;;;;;;;0.80;0.40;;;;;;;;;;10431725;28;20892;-81
2023/08/08 03:36:46;;;;;;;1.10;0.47;;;;;;;;;;10428599;28;20467;-81
2023/08/08 03:41:49;;;;;;;0.85;0.40;;;;;;;;;;10425483;28;20425;-81
2023/08/08 03:46:51;;;;;;;0.40;0.40;;;;;;;;;;10432672;28;20484;-80
2023/08/08 03:51:54;;;;;;;0.30;0.30;;;;;;;;;;10426812;28;20891;-80
2023/08/08 03:56:57;;;;;;;1.17;0.30;;;;;;;;;;10430415;28;20413;-80
2023/08/08 04:02:00;;;;;;;0.75;0.43;;;;;;;;;;10431614;28;20413;-80
2023/08/08 04:07:02;;;;;;;0.30;0.30;;;;;;;;;;10434428;28;20485;-80
2023/08/08 04:12:06;;;;;;;0.40;0.30;;;;;;;;;;10429858;28;20819;-81
2023/08/08 04:17:09;;;;;;;0.43;0.40;;;;;;;;;;10430234;28;20405;-81
2023/08/08 04:22:11;;;;;;;0.90;0.30;;;;;;;;;;10433612;28;20404;-80
2023/08/08 04:27:15;;;;;;;1.63;0.40;;;;;;;;;;10429902;28;20420;-80
2023/08/08 04:32:17;;;;;;;1.20;0.40;;;;;;;;;;10430205;28;20879;-80
2023/08/08 04:37:19;;;;;;;0.93;0.40;;;;;;;;;;10432122;28;20404;-81
2023/08/08 04:42:23;;;;;;;0.88;0.50;;;;;;;;;;10426015;28;20421;-80
2023/08/08 04:47:25;;;;;;;0.87;0.70;;;;;;;;;;10432167;28;21089;-81
2023/08/08 04:52:27;;;;;;;1.23;0.47;;;;;;;;;;10429205;28;20415;-80
2023/08/08 04:57:31;;;;;;;0.73;0.30;;;;;;;;;;10429127;28;20887;-81
2023/08/08 05:02:33;;;;;;;0.43;0.20;;;;;;;;;;10428850;28;20932;-80
2023/08/08 05:07:37;;;;;;;0.80;0.30;;;;;;;;;;10429622;28;20460;-80
2023/08/08 05:12:41;;;;;;;1.02;0.40;;;;;;;;;;10425799;28;20414;-80
2023/08/08 05:17:43;;;;;;;0.60;0.20;;;;;;;;;;10428820;28;20403;-81
2023/08/08 05:22:45;;;;;;;0.70;0.30;;;;;;;;;;10430113;28;20413;-81
2023/08/08 05:27:49;;;;;;;0.25;0.20;;;;;;;;;;10426373;28;20475;-80
2023/08/08 05:32:52;;;;;;;0.27;0.27;;;;;;;;;;10429640;28;20490;-80
2023/08/08 05:37:54;;;;;;;0.20;0.20;;;;;;;;;;10428450;28;20813;-80
2023/08/08 05:42:58;;;;;;;0.60;0.40;;;;;;;;;;10425023;28;20919;-80
2023/08/08 05:48:00;;;;;;;0.40;0.30;;;;;;;;;;10428695;28;20506;-80
2023/08/08 05:53:02;;;;;;;0.45;0.30;;;;;;;;;;10428061;28;20493;-81
2023/08/08 05:58:06;;;;;;;0.63;0.30;;;;;;;;;;10426290;28;20886;-80
2023/08/08 06:03:08;;;;;;;0.87;0.30;;;;;;;;;;10428611;28;20413;-81
2023/08/08 06:08:13;;;;;;;0.30;0.30;;;;;;;;;;10427958;28;20477;-81
2023/08/08 06:13:16;;;;;;;0.70;0.30;;;;;;;;;;10424302;28;20433;-80
2023/08/08 06:18:19;;;;;;;0.50;0.30;;;;;;;;;;10426772;28;20404;-80
2023/08/08 06:23:21;;;;;;;0.30;0.30;;;;;;;;;;10427930;28;20466;-80
2023/08/08 06:28:25;;;;;;;0.90;0.37;;;;;;;;;;10424047;28;20860;-80
2023/08/08 06:33:28;;;;;;;1.40;0.40;;;;;;;;;;10427623;28;20434;-80
2023/08/08 06:38:33;;;;;;;0.50;0.40;;;;;;;;;;10427465;28;20603;-80
2023/08/08 06:43:37;;;;;;;1.67;0.43;;;;;;;;;;10424220;28;20411;-80
2023/08/08 06:48:39;;;;;;;0.93;0.38;;;;;;;;;;10427588;28;20823;-80
2023/08/08 06:53:41;;;;;;;0.50;0.30;;;;;;;;;;10427174;28;20864;-80
2023/08/08 06:58:45;;;;;;;0.40;0.40;;;;;;;;;;10422894;28;20463;-80
2023/08/08 07:03:47;;;;;;;0.80;0.60;;;;;;;;;;10426909;28;20915;-80
2023/08/08 07:08:49;;;;;;;0.60;0.50;;;;;;;;;;10426334;28;20457;-80
2023/08/08 07:13:53;;;;;;;0.80;0.38;;;;;;;;;;10422439;28;20417;-80
2023/08/08 07:18:55;;;;;;;0.60;0.35;;;;;;;;;;10433834;28;20400;-81
2023/08/08 07:23:58;;;;;;;0.93;0.50;;;;;;;;;;10433732;28;20822;-80
2023/08/08 07:29:01;;;;;;;0.57;0.40;;;;;;;;;;10431428;28;20445;-80
2023/08/08 07:34:03;;;;;;;1.20;0.30;;;;;;;;;;10434092;28;20411;-79
2023/08/08 07:39:06;;;;;;;0.60;0.30;;;;;;;;;;10432512;28;20443;-79
2023/08/08 07:44:09;;;;;;;1.60;0.60;;;;;;;;;;10431272;28;20508;-80
2023/08/08 07:49:12;;;;;;;1.38;0.40;;;;;;;;;;10433336;28;20467;-80
2023/08/08 07:54:14;;;;;;;0.60;0.20;;;;;;;;;;10431794;28;20588;-80
2023/08/08 07:59:17;;;;;;;0.50;0.40;;;;;;;;;;10430104;28;20472;-80
2023/08/08 08:04:20;;;;;;;0.40;0.30;;;;;;;;;;10433004;28;20407;-79
2023/08/08 08:09:22;;;;;;;1.05;0.30;;;;;;;;;;10430961;28;20468;-80
2023/08/08 08:14:26;;;;;;;1.05;0.40;;;;;;;;;;10425015;28;20753;-79
2023/08/08 08:19:28;;;;;;;3.80;0.47;;;;;;;;;;10433328;28;20449;-80
2023/08/08 08:24:30;;;;;;;1.63;0.30;;;;;;;;;;10430005;28;20409;-80
2023/08/08 08:29:34;;;;;;;1.10;0.30;;;;;;;;;;10430198;28;20427;-80
2023/08/08 08:34:36;;;;;;;1.10;0.40;;;;;;;;;;10429772;28;20455;-80
2023/08/08 08:39:38;;;;;;;2.33;0.60;;;;;;;;;;10432450;28;20457;-80
2023/08/08 08:44:43;;;;;;;0.40;0.40;;;;;;;;;;10427263;28;20414;-79
2023/08/08 08:49:46;;;;;;;0.50;0.40;;;;;;;;;;10426095;28;20460;-80
2023/08/08 08:54:49;;;;;;;1.33;0.30;;;;;;;;;;10431778;28;20512;-80
2023/08/08 08:59:52;;;;;;;1.95;0.28;;;;;;;;;;10427637;28;20412;-80
2023/08/08 09:04:55;;;;;;;0.43;0.28;;;;;;;;;;10424013;28;20953;-79
2023/08/08 09:09:57;;;;;;;0.35;0.25;;;;;;;;;;10428174;28;20475;-81
2023/08/08 09:15:04;;;;;;;0.77;0.30;;;;;;;;;;10423111;28;20413;-80
2023/08/08 09:20:08;;;;;;;0.33;0.27;;;;;;;;;;10425865;28;20455;-80
2023/08/08 09:25:10;;;;;;;0.80;0.30;;;;;;;;;;10430583;28;20400;-80
2023/08/08 09:30:14;;;;;;;0.50;0.30;;;;;;;;;;10423154;28;21016;-79
2023/08/08 09:35:16;;;;;;;1.38;0.40;;;;;;;;;;10425844;28;20446;-80
2023/08/08 09:40:21;;;;;;;1.35;0.38;;;;;;;;;;10426969;28;20471;-80
2023/08/08 09:45:25;;;;;;;1.40;0.20;;;;;;;;;;10425228;28;20460;-80
2023/08/08 09:50:27;;;;;;;0.98;0.28;;;;;;;;;;10428726;28;20470;-79
2023/08/08 09:55:30;;;;;;;1.40;0.40;;;;;;;;;;10427033;28;20463;-80
2023/08/08 10:00:34;;;;;;;0.80;0.30;;;;;;;;;;10427032;28;20432;-80
2023/08/08 10:05:38;;;;;;;0.30;0.27;;;;;;;;;;10429204;28;20396;-80
2023/08/08 10:10:40;;;;;;;0.40;0.20;;;;;;;;;;10427270;28;20475;-80
2023/08/08 10:15:44;;;;;;;0.40;0.20;;;;;;;;;;10424958;28;20408;-80
2023/08/08 10:20:49;;;;;;;0.52;0.20;;;;;;;;;;10426607;28;20409;-80
2023/08/08 10:25:53;;;;;;;0.37;0.30;;;;;;;;;;10429015;28;20449;-81
2023/08/08 10:30:58;;;;;;;2.08;0.30;;;;;;;;;;10423159;28;20425;-81
2023/08/08 10:36:01;;;;;;;0.60;0.30;;;;;;;;;;10427936;28;20468;-80
2023/08/08 10:41:04;;;;;;;1.00;0.40;;;;;;;;;;10426873;28;20830;-80
2023/08/08 10:46:07;;;;;;;0.90;0.30;;;;;;;;;;10427798;28;20408;-80
2023/08/08 10:51:10;;;;;;;4.40;1.67;;;;;;;;;;10432214;28;20949;-80
2023/08/08 10:56:14;;;;;;;1.50;0.30;;;;;;;;;;10431648;28;20471;-80
2023/08/08 11:01:18;;;;;;;0.83;0.20;;;;;;;;;;10433964;28;20420;-80
2023/08/08 11:06:20;;;;;;;0.93;0.30;;;;;;;;;;10435915;28;20403;-80
2023/08/08 11:11:23;;;;;;;0.80;0.30;;;;;;;;;;10433149;28;20402;-80
2023/08/08 11:16:26;;;;;;;0.30;0.30;;;;;;;;;;10434250;28;20477;-80
2023/08/08 11:21:28;;;;;;;0.50;0.30;;;;;;;;;;10432724;28;20463;-79
2023/08/08 11:26:32;;;;;;;0.82;0.40;;;;;;;;;;10433134;28;20518;-80
2023/08/08 11:31:36;;;;;;;0.73;0.40;;;;;;;;;;10431766;28;20413;-81
2023/08/08 11:36:39;;;;;;;1.00;0.40;;;;;;;;;;10434352;28;20404;-80
2023/08/08 11:41:42;;;;;;;1.47;0.30;;;;;;;;;;10431431;28;20833;-81
2023/08/08 11:46:47;;;;;;;1.48;0.40;;;;;;;;;;10431135;28;20891;-80
2023/08/08 11:51:49;;;;;;;0.40;0.40;;;;;;;;;;10433829;28;20537;-81
2023/08/08 11:56:52;;;;;;;1.00;0.35;;;;;;;;;;10426123;28;20467;-81
2023/08/08 12:01:56;;;;;;;0.50;0.30;;;;;;;;;;10430914;28;20772;-81
2023/08/08 12:07:03;;;;;;;1.00;0.30;;;;;;;;;;10433343;28;20528;-81
2023/08/08 12:12:06;;;;;;;1.00;0.40;;;;;;;;;;10429958;28;20409;-81
2023/08/08 12:17:10;;;;;;;2.70;0.30;;;;;;;;;;10431130;28;20417;-80
2023/08/08 12:22:12;;;;;;;2.10;0.80;;;;;;;;;;10430267;28;20487;-81
2023/08/08 12:27:14;;;;;;;0.40;0.32;;;;;;;;;;10427632;28;20921;-81
2023/08/08 12:32:19;;;;;;;0.93;0.60;;;;;;;;;;10430631;28;20495;-81
2023/08/08 12:37:21;;;;;;;0.68;0.40;;;;;;;;;;10431393;28;20403;-80
2023/08/08 12:42:23;;;;;;;0.80;0.40;;;;;;;;;;10427870;28;20551;-81
2023/08/08 12:47:29;;;;;;;0.55;0.50;;;;;;;;;;10431395;28;20427;-80
2023/08/08 12:52:31;;;;;;;2.35;1.40;;;;;;;;;;10429612;28;20405;-80
2023/08/08 12:57:33;;;;;;;2.10;1.20;;;;;;;;;;10429822;28;20446;-81
2023/08/08 13:02:38;;;;;;;2.10;1.38;;;;;;;;;;10429159;28;20413;-81
2023/08/08 13:07:40;;;;;;;2.10;0.68;;;;;;;;;;10431057;28;20423;-81
2023/08/08 13:12:43;;;;;;;1.33;0.43;;;;;;;;;;10426642;28;20824;-81
2023/08/08 13:17:46;;;;;;;1.60;0.50;;;;;;;;;;10428349;28;20405;-81
2023/08/08 13:22:49;;;;;;;1.02;0.63;;;;;;;;;;10430055;28;20408;-81
2023/08/08 13:27:51;;;;;;;1.10;0.40;;;;;;;;;;10425640;28;20425;-81
2023/08/08 13:32:55;;;;;;;3.07;1.70;;;;;;;;;;10430408;28;20435;-80
2023/08/08 13:37:57;;;;;;;0.95;0.85;;;;;;;;;;10427233;28;20441;-80
2023/08/08 13:42:59;;;;;;;2.03;1.80;;;;;;;;;;10426822;28;20410;-81
2023/08/08 13:48:05;;;;;;;1.30;0.40;;;;;;;;;;10429313;28;20475;-81
2023/08/08 13:53:07;;;;;;;1.80;0.70;;;;;;;;;;10427083;28;20811;-81
2023/08/08 13:58:11;;;;;;;0.52;0.30;;;;;;;;;;10428805;28;20404;-81
2023/08/08 14:03:14;;;;;;;1.42;0.40;;;;;;;;;;10427084;28;20455;-80
2023/08/08 14:08:17;;;;;;;1.20;0.47;;;;;;;;;;10429630;28;20432;-81
2023/08/08 14:13:19;;;;;;;2.10;1.33;;;;;;;;;;10425897;28;20408;-82
2023/08/08 14:18:23;;;;;;;1.13;0.50;;;;;;;;;;10426390;28;20483;-81
2023/08/08 14:23:25;;;;;;;1.80;0.90;;;;;;;;;;10430711;28;20412;-81
2023/08/08 14:28:28;;;;;;;2.65;0.40;;;;;;;;;;10431619;28;20501;-81
2023/08/08 14:33:31;;;;;;;0.43;0.40;;;;;;;;;;10434007;28;20883;-81
2023/08/08 14:38:37;;;;;;;0.40;0.40;;;;;;;;;;10436300;28;20489;-81
2023/08/08 14:43:39;;;;;;;0.90;0.30;;;;;;;;;;10430390;28;20477;-81
2023/08/08 14:48:43;;;;;;;1.60;0.40;;;;;;;;;;10433663;28;20480;-81
2023/08/08 14:53:45;;;;;;;1.23;0.40;;;;;;;;;;10436552;28;20479;-81
2023/08/08 14:58:47;;;;;;;0.50;0.35;;;;;;;;;;10429814;28;20783;-81
2023/08/08 15:03:51;;;;;;;2.00;0.70;;;;;;;;;;10436373;28;20470;-81
2023/08/08 15:08:54;;;;;;;1.52;0.50;;;;;;;;;;10432188;28;20425;-81
2023/08/08 15:13:56;;;;;;;4.20;1.50;;;;;;;;;;10428637;28;20421;-81
2023/08/08 15:19:00;;;;;;;0.85;0.82;;;;;;;;;;10436510;28;20407;-81
2023/08/08 15:24:02;;;;;;;2.00;0.47;;;;;;;;;;10428653;28;20417;-81
2023/08/08 15:29:05;;;;;;;0.60;0.32;;;;;;;;;;10423314;28;20511;-81
2023/08/08 15:34:09;;;;;;;0.80;0.40;;;;;;;;;;10431016;28;20455;-81
2023/08/08 15:39:11;;;;;;;1.80;0.80;;;;;;;;;;10427361;28;20418;-81
2023/08/08 15:44:14;;;;;;;1.80;1.60;;;;;;;;;;10426532;28;20408;-81
2023/08/08 15:49:17;;;;;;;2.00;0.90;;;;;;;;;;10433999;28;20520;-81
2023/08/08 15:54:20;;;;;;;2.60;0.70;;;;;;;;;;10430829;28;20410;-82
2023/08/08 15:59:22;;;;;;;1.30;0.40;;;;;;;;;;10425661;28;20417;-81
2023/08/08 16:04:25;;;;;;;1.00;0.45;;;;;;;;;;10434007;28;20437;-81
2023/08/08 16:09:28;;;;;;;1.73;0.40;;;;;;;;;;10430696;28;20480;-81
2023/08/08 16:14:30;;;;;;;1.60;0.50;;;;;;;;;;10431093;28;20416;-81
2023/08/08 16:19:34;;;;;;;1.70;0.55;;;;;;;;;;10430765;28;20969;-81
2023/08/08 16:24:36;;;;;;;1.30;0.67;;;;;;;;;;10432698;28;20469;-81
2023/08/08 16:29:39;;;;;;;1.10;0.50;;;;;;;;;;10428914;28;20433;-81
2023/08/08 16:34:45;;;;;;;1.25;0.40;;;;;;;;;;10432234;28;20457;-81
2023/08/08 16:39:48;;;;;;;1.60;0.43;;;;;;;;;;10429756;28;20760;-81
2023/08/08 16:44:50;;;;;;;0.93;0.30;;;;;;;;;;10426170;28;20856;-81
2023/08/08 16:49:53;;;;;;;1.50;0.40;;;;;;;;;;10431562;28;20811;-81
2023/08/08 16:54:56;;;;;;;1.00;0.30;;;;;;;;;;10430696;28;20411;-87
2023/08/08 17:00:00;;;;;;;0.80;0.30;;;;;;;;;;10427832;28;20429;-86
2023/08/08 17:05:05;;;;;;;0.63;0.30;;;;;;;;;;10431665;28;20403;-86
2023/08/08 17:10:09;;;;;;;1.23;0.40;;;;;;;;;;10427634;28;20475;-87
2023/08/08 17:15:11;;;;;;;0.90;0.40;;;;;;;;;;10430332;28;20411;-81
2023/08/08 17:20:15;;;;;;;1.20;0.40;;;;;;;;;;10427960;28;20413;-81
2023/08/08 17:25:18;;;;;;;0.90;0.50;;;;;;;;;;10427774;28;20886;-80
2023/08/08 17:30:20;;;;;;;0.60;0.40;;;;;;;;;;10427299;28;20463;-81
2023/08/08 17:35:24;;;;;;;0.47;0.40;;;;;;;;;;10426941;28;20409;-81
2023/08/08 17:40:26;;;;;;;1.20;0.30;;;;;;;;;;10426103;28;20418;-81
2023/08/08 17:45:28;;;;;;;1.50;0.60;;;;;;;;;;10427552;28;20551;-82
2023/08/08 17:50:34;;;;;;;1.98;0.40;;;;;;;;;;10425914;28;20445;-80
2023/08/08 17:55:38;;;;;;;1.40;0.40;;;;;;;;;;10426961;28;20471;-80
2023/08/08 18:00:40;;;;;;;0.80;0.40;;;;;;;;;;10424905;28;20412;-80
2023/08/08 18:05:44;;;;;;;2.40;0.90;;;;;;;;;;10426750;28;20428;-80
2023/08/08 18:10:48;;;;;;;4.45;0.73;;;;;;;;;;10427270;28;20503;-80
2023/08/08 18:15:50;;;;;;;2.15;0.80;;;;;;;;;;10425734;28;20455;-80
2023/08/08 18:20:54;;;;;;;2.70;0.63;;;;;;;;;;10428757;28;20770;-80
2023/08/08 18:26:00;;;;;;;2.50;1.20;;;;;;;;;;10426174;28;20414;-80
2023/08/08 18:31:02;;;;;;;2.40;1.20;;;;;;;;;;10423000;28;20875;-80
2023/08/08 18:36:06;;;;;;;0.93;0.70;;;;;;;;;;10428742;28;20423;-80
2023/08/08 18:41:09;;;;;;;1.75;0.85;;;;;;;;;;10423158;28;20416;-80
2023/08/08 18:46:11;;;;;;;1.73;0.90;;;;;;;;;;10424270;28;20531;-81
2023/08/08 18:51:15;;;;;;;2.10;0.90;;;;;;;;;;10425445;28;20558;-80
2023/08/08 18:56:17;;;;;;;1.70;0.70;;;;;;;;;;10425903;28;20469;-80
2023/08/08 19:01:20;;;;;;;1.90;0.77;;;;;;;;;;10426289;28;20437;-80
2023/08/08 19:06:24;;;;;;;1.43;0.70;;;;;;;;;;10425680;28;20761;-79
2023/08/08 19:11:26;;;;;;;2.38;0.95;;;;;;;;;;10428950;28;20456;-80
2023/08/08 19:16:30;;;;;;;1.90;0.70;;;;;;;;;;10431719;28;20431;-81
2023/08/08 19:21:33;;;;;;;1.70;0.68;;;;;;;;;;10433222;28;20447;-81
2023/08/08 19:26:36;;;;;;;2.10;0.80;;;;;;;;;;10434939;28;20416;-80
2023/08/08 19:31:38;;;;;;;1.90;0.95;;;;;;;;;;10432011;28;20499;-80
2023/08/08 19:36:42;;;;;;;1.10;0.67;;;;;;;;;;10434579;28;20409;-80
2023/08/08 19:41:44;;;;;;;3.75;1.20;;;;;;;;;;10431432;28;20429;-81
2023/08/08 19:46:47;;;;;;;1.60;1.00;;;;;;;;;;10432016;28;20407;-80
2023/08/08 19:51:50;;;;;;;2.38;1.13;;;;;;;;;;10433736;28;20449;-81
2023/08/08 19:56:52;;;;;;;1.80;1.03;;;;;;;;;;10429598;28;20473;-80
2023/08/08 20:01:55;;;;;;;2.80;1.20;;;;;;;;;;10433073;28;20828;-80
2023/08/08 20:06:58;;;;;;;3.97;1.10;;;;;;;;;;10432231;28;20408;-80
2023/08/08 20:12:01;;;;;;;2.90;1.50;;;;;;;;;;10428806;28;20514;-81
2023/08/08 20:17:03;;;;;;;3.83;1.20;;;;;;;;;;10430666;28;20479;-80
2023/08/08 20:22:07;;;;;;;2.73;1.10;;;;;;;;;;10430901;28;20412;-80
2023/08/08 20:27:09;;;;;;;3.73;1.23;;;;;;;;;;10428370;28;20455;-80
2023/08/08 20:32:12;;;;;;;2.53;1.10;;;;;;;;;;10431931;28;20451;-80
2023/08/08 20:37:17;;;;;;;1.75;1.00;;;;;;;;;;10430882;28;20400;-80
2023/08/08 20:42:19;;;;;;;3.17;1.00;;;;;;;;;;10427275;28;20467;-80
2023/08/08 20:47:21;;;;;;;1.25;0.95;;;;;;;;;;10430094;28;20462;-80
2023/08/08 20:52:25;;;;;;;2.23;0.80;;;;;;;;;;10428043;28;20532;-80
2023/08/08 20:57:28;;;;;;;1.47;0.93;;;;;;;;;;10427632;28;20872;-80
2023/08/08 21:02:30;;;;;;;1.95;0.90;;;;;;;;;;10429487;28;20403;-80
2023/08/08 21:07:35;;;;;;;1.10;0.93;;;;;;;;;;10429819;28;20459;-80
2023/08/08 21:12:38;;;;;;;1.13;1.00;;;;;;;;;;10423338;28;20937;-80
2023/08/08 21:17:42;;;;;;;1.98;0.85;;;;;;;;;;10429615;28;20453;-81
2023/08/08 21:22:46;;;;;;;1.70;1.00;;;;;;;;;;10429804;28;20397;-81
2023/08/08 21:27:48;;;;;;;1.23;0.77;;;;;;;;;;10427958;28;20412;-81
2023/08/08 21:32:51;;;;;;;0.77;0.68;;;;;;;;;;10427809;28;20483;-80
2023/08/08 21:37:54;;;;;;;3.95;0.90;;;;;;;;;;10428914;28;20465;-81
2023/08/08 21:42:57;;;;;;;4.50;1.50;;;;;;;;;;10427993;28;20419;-82
2023/08/08 21:48:00;;;;;;;3.35;1.20;;;;;;;;;;10429114;28;20773;-81
2023/08/08 21:53:04;;;;;;;1.88;1.00;;;;;;;;;;10427845;28;20431;-81
2023/08/08 21:58:06;;;;;;;1.50;1.00;;;;;;;;;;10425828;28;20501;-81
2023/08/08 22:03:08;;;;;;;2.63;1.05;;;;;;;;;;10428373;28;20409;-81
2023/08/08 22:08:12;;;;;;;2.95;1.00;;;;;;;;;;10428853;28;20404;-81
2023/08/08 22:13:14;;;;;;;2.47;1.10;;;;;;;;;;10426674;28;20986;-81
2023/08/08 22:18:18;;;;;;;1.48;1.00;;;;;;;;;;10427609;28;20412;-81
2023/08/08 22:23:22;;;;;;;2.72;1.15;;;;;;;;;;10427350;28;20486;-81
2023/08/08 22:28:24;;;;;;;4.43;2.50;;;;;;;;;;10425716;28;20417;-81
2023/08/08 22:33:27;;;;;;;1.73;1.40;;;;;;;;;;10427632;28;20450;-81
2023/08/08 22:38:30;;;;;;;3.88;1.58;;;;;;;;;;10424596;28;20415;-80
2023/08/08 22:43:33;;;;;;;2.23;1.50;;;;;;;;;;10423176;28;20788;-81
2023/08/08 22:48:35;;;;;;;2.00;1.80;;;;;;;;;;10436192;28;20430;-81
2023/08/08 22:53:39;;;;;;;1.80;1.70;;;;;;;;;;10434151;28;20457;-81
2023/08/08 22:58:41;;;;;;;1.93;1.67;;;;;;;;;;10431854;28;20757;-81
2023/08/08 23:03:43;;;;;;;2.40;1.40;;;;;;;;;;10435348;28;20880;-81
2023/08/08 23:08:49;;;;;;;3.83;2.25;;;;;;;;;;10434116;28;20830;-81
2023/08/08 23:13:51;;;;;;;4.63;2.23;;;;;;;;;;10432680;28;20477;-81
2023/08/08 23:18:53;;;;;;;4.50;2.40;;;;;;;;;;10433870;28;20411;-80
2023/08/08 23:23:57;;;;;;;4.80;2.40;;;;;;;;;;10430654;28;20414;-81
2023/08/08 23:29:00;;;;;;;4.20;2.80;;;;;;;;;;10430708;28;20951;-81
2023/08/08 23:34:02;;;;;;;3.93;2.80;;;;;;;;;;10433117;28;20915;-81
2023/08/08 23:39:07;;;;;;;4.75;2.60;;;;;;;;;;10430826;28;20965;-81
2023/08/08 23:44:10;;;;;;;5.63;2.30;;;;;;;;;;10429461;28;20445;-81
2023/08/08 23:49:12;;;;;;;4.78;2.90;;;;;;;;;;10433101;28;20860;-80
2023/08/08 23:54:16;;;;;;;4.27;2.40;;;;;;;;;;10430630;28;20502;-81
2023/08/08 23:59:18;;;;;;;3.80;2.40;;;;;;;;;;10429357;28;20891;-81
